Time;durP1;ratioP1;P1;durP2;ratioP2;P2;SDS_P1;SDS_P2;PMS_P1;PMS_P2;Temp;Humidity;BMP_temperature;BMP_pressure;BME280_temperature;BME280_humidity;BME280_pressure;Samples;Min_cycle;Max_cycle;Signal;HPM_P1;HPM_P2
2022/08/26 00:01:27;;;;;;;21.20;12.07;;;;;;;24.40;51.94;99559.19;5001380;28;20505;-85
2022/08/26 00:03:55;;;;;;;19.73;11.27;;;;;;;24.34;52.01;99557.41;4983424;28;20042;-86
2022/08/26 00:06:25;;;;;;;22.15;12.60;;;;;;;24.28;52.15;99559.16;4953119;28;20043;-86
2022/08/26 00:08:52;;;;;;;31.73;14.70;;;;;;;24.32;51.93;99559.53;5010730;28;20054;-85
2022/08/26 00:11:18;;;;;;;56.58;22.40;;;;;;;24.34;51.90;99557.41;4966287;28;20588;-85
2022/08/26 00:13:56;;;;;;;37.35;15.15;;;;;;;24.22;52.89;99558.22;4982797;28;20046;-85
2022/08/26 00:16:26;;;;;;;20.33;12.95;;;;;;;24.20;52.66;99563.03;4999189;28;20057;-85
2022/08/26 00:18:54;;;;;;;25.23;12.63;;;;;;;24.23;52.52;99569.88;4966545;28;20042;-86
2022/08/26 00:21:21;;;;;;;21.05;12.23;;;;;;;24.23;53.22;99565.28;4964489;28;20042;-85
2022/08/26 00:23:49;;;;;;;22.65;10.98;;;;;;;24.22;53.23;99573.63;4951891;28;20077;-86
2022/08/26 00:26:16;;;;;;;22.05;11.27;;;;;;;24.16;52.91;99569.16;4970179;28;20066;-86
2022/08/26 00:28:43;;;;;;;20.50;11.15;;;;;;;24.19;52.51;99574.09;4968202;28;20129;-85
2022/08/26 00:31:10;;;;;;;19.60;11.63;;;;;;;24.13;52.73;99567.72;4969534;28;20058;-85
2022/08/26 00:33:38;;;;;;;20.33;12.07;;;;;;;24.14;52.58;99573.97;5000336;28;20049;-86
2022/08/26 00:36:08;;;;;;;26.27;12.43;;;;;;;24.12;52.72;99576.09;4997845;28;20054;-86
2022/08/26 00:38:45;;;;;;;23.80;13.10;;;;;;;24.16;52.52;99567.25;4995987;28;20145;-85
2022/08/26 00:41:12;;;;;;;23.67;12.05;;;;;;;24.17;52.59;99577.06;4983913;28;20042;-86
2022/08/26 00:43:39;;;;;;;21.00;11.77;;;;;;;24.17;52.45;99576.22;5000312;28;20054;-85
2022/08/26 00:46:19;;;;;;;29.77;11.52;;;;;;;24.09;52.94;99573.84;4983811;28;20106;-86
2022/08/26 00:48:47;;;;;;;;;;;;;;;23.64;54.17;99575.03;4985341;28;20042;-86
2022/08/26 00:51:23;;;;;;;20.92;11.20;;;;;;;23.96;53.44;99578.38;4958614;28;19937;-85
2022/08/26 00:54:01;;;;;;;21.45;11.23;;;;;;;23.98;53.48;99572.75;5009933;28;20043;-85
2022/08/26 00:56:43;;;;;;;20.05;11.48;;;;;;;23.83;53.72;99575.88;4996893;28;20062;-86
2022/08/26 00:59:13;;;;;;;22.52;12.32;;;;;;;24.01;53.05;99577.72;4969007;28;20096;-85
2022/08/26 01:01:43;;;;;;;23.70;12.38;;;;;;;24.04;53.12;99575.38;4967130;28;20046;-86
2022/08/26 01:04:14;;;;;;;18.73;11.63;;;;;;;23.99;53.29;99568.97;4998561;28;20054;-85
2022/08/26 01:06:41;;;;;;;21.15;11.55;;;;;;;23.99;53.37;99566.25;4966474;28;20073;-85
2022/08/26 01:09:10;;;;;;;26.65;12.45;;;;;;;23.93;53.19;99570.72;4984073;28;20046;-84
2022/08/26 01:11:37;;;;;;;27.52;12.23;;;;;;;23.94;53.66;99569.69;4999068;28;20046;-85
2022/08/26 01:14:05;;;;;;;21.52;12.00;;;;;;;23.94;53.55;99572.38;4995834;28;20137;-85
2022/08/26 01:17:00;;;;;;;21.17;12.50;;;;;;;23.65;54.41;99565.03;4968017;28;20497;-85
2022/08/26 01:19:36;;;;;;;19.73;12.00;;;;;;;23.85;53.79;99572.94;4947904;28;20105;-84
2022/08/26 01:22:10;;;;;;;19.73;12.32;;;;;;;23.77;54.10;99564.06;4968111;28;20049;-85
2022/08/26 01:24:37;;;;;;;26.75;13.88;;;;;;;23.82;53.73;99564.19;5015089;28;20101;-85
2022/08/26 01:27:07;;;;;;;23.33;12.38;;;;;;;23.81;53.98;99561.69;4995961;28;20054;-84
2022/08/26 01:29:35;;;;;;;22.33;11.68;;;;;;;23.85;53.84;99567.50;4982230;28;20054;-85
2022/08/26 01:32:03;;;;;;;26.58;13.30;;;;;;;23.87;53.75;99566.22;4986338;28;20410;-86
2022/08/26 01:34:34;;;;;;;21.67;12.50;;;;;;;23.80;54.12;99576.31;4996980;28;20046;-84
2022/08/26 01:37:04;;;;;;;21.20;12.18;;;;;;;23.91;53.39;99578.25;4992342;28;20089;-85
2022/08/26 01:39:32;;;;;;;21.90;13.57;;;;;;;23.88;53.83;99575.19;4983089;28;20053;-84
2022/08/26 01:42:00;;;;;;;22.73;13.13;;;;;;;23.90;53.65;99573.06;4971960;28;20047;-85
2022/08/26 01:44:33;;;;;;;25.38;12.68;;;;;;;23.80;53.74;99569.00;4981088;28;20042;-85
2022/08/26 01:47:00;;;;;;;24.40;13.05;;;;;;;23.80;53.76;99565.47;4983682;28;20050;-86
2022/08/26 01:49:34;;;;;;;21.70;12.55;;;;;;;23.69;54.23;99560.81;4977584;28;20047;-85
2022/08/26 01:52:02;;;;;;;20.42;12.73;;;;;;;23.71;53.87;99566.81;4981820;28;20394;-85
2022/08/26 01:54:30;;;;;;;27.92;13.13;;;;;;;23.66;54.25;99572.94;4967442;28;20127;-85
2022/08/26 01:56:57;;;;;;;24.15;12.60;;;;;;;23.70;54.16;99570.59;5013910;28;20048;-85
2022/08/26 01:59:24;;;;;;;20.77;12.23;;;;;;;23.69;54.06;99566.22;4994600;28;20042;-85
2022/08/26 02:01:52;;;;;;;22.33;12.45;;;;;;;23.58;54.56;99563.22;4998176;28;20380;-85
2022/08/26 02:04:28;;;;;;;21.40;12.75;;;;;;;23.42;55.10;99565.72;4997923;28;20065;-85
2022/08/26 02:06:56;;;;;;;26.92;12.00;;;;;;;23.55;54.79;99569.09;4962951;28;20054;-85
2022/08/26 02:09:25;;;;;;;25.20;12.68;;;;;;;23.51;55.15;99567.91;4982864;28;20056;-85
2022/08/26 02:11:52;;;;;;;19.35;12.48;;;;;;;23.54;54.89;99572.84;4980551;28;20050;-85
2022/08/26 02:14:25;;;;;;;16.17;11.55;;;;;;;23.34;55.33;99566.84;4952316;28;20039;-85
2022/08/26 02:16:54;;;;;;;24.40;13.27;;;;;;;23.53;54.76;99560.34;4975889;28;21413;-85
2022/08/26 02:19:30;;;;;;;26.42;12.45;;;;;;;23.57;54.72;99560.75;4985013;28;20057;-85
2022/08/26 02:21:59;;;;;;;26.00;13.32;;;;;;;23.53;54.85;99556.81;5006374;28;20042;-85
2022/08/26 02:24:29;;;;;;;28.33;13.40;;;;;;;23.48;54.99;99557.50;4983300;28;20130;-86
2022/08/26 02:26:57;;;;;;;21.92;12.38;;;;;;;23.47;54.79;99563.97;4966423;28;20054;-85
2022/08/26 02:29:34;;;;;;;29.92;15.25;;;;;;;23.38;55.05;99565.31;4986529;28;20054;-86
2022/08/26 02:32:08;;;;;;;27.67;14.52;;;;;;;23.40;55.00;99565.94;4974531;28;20049;-85
2022/08/26 02:34:36;;;;;;;28.95;14.60;;;;;;;23.44;54.94;99567.16;4952806;28;20046;-86
2022/08/26 02:37:06;;;;;;;22.88;13.20;;;;;;;23.46;54.73;99572.31;5012192;28;20498;-86
2022/08/26 02:39:34;;;;;;;29.40;14.52;;;;;;;23.45;54.86;99573.38;4997073;28;20085;-86
2022/08/26 02:42:00;;;;;;;25.52;14.23;;;;;;;23.44;54.96;99571.75;5000843;28;20046;-86
2022/08/26 02:44:28;;;;;;;27.35;13.77;;;;;;;23.45;55.16;99565.25;4983209;28;20636;-85
2022/08/26 02:46:54;;;;;;;24.08;13.82;;;;;;;23.36;55.04;99567.44;4983638;28;20042;-86
2022/08/26 02:49:26;;;;;;;26.63;14.15;;;;;;;23.22;55.79;99569.47;4986580;28;20564;-85
2022/08/26 02:51:53;;;;;;;24.55;13.40;;;;;;;23.28;55.40;99562.31;5001391;28;20054;-85
2022/08/26 02:54:20;;;;;;;25.42;14.93;;;;;;;23.30;55.11;99562.91;4986463;28;20057;-86
2022/08/26 02:56:47;;;;;;;28.38;14.10;;;;;;;23.26;55.33;99567.97;5015770;28;22561;-86
2022/08/26 02:59:14;;;;;;;24.27;13.73;;;;;;;23.21;55.60;99562.41;4970633;28;20537;-86
2022/08/26 03:01:41;;;;;;;28.95;14.60;;;;;;;23.16;55.79;99554.94;4987348;28;20498;-86
2022/08/26 03:04:10;;;;;;;23.98;14.07;;;;;;;23.18;55.78;99557.44;5001565;28;20546;-86
2022/08/26 03:06:38;;;;;;;23.95;14.07;;;;;;;23.14;55.74;99556.22;4999251;28;20138;-85
2022/08/26 03:09:07;;;;;;;21.75;13.27;;;;;;;23.10;55.96;99546.88;4983947;28;20451;-86
2022/08/26 03:11:39;;;;;;;21.27;13.50;;;;;;;23.06;55.99;99561.94;4980793;28;20057;-85
2022/08/26 03:14:07;;;;;;;22.73;13.98;;;;;;;23.12;55.82;99559.16;4986059;28;20080;-85
2022/08/26 03:16:35;;;;;;;24.00;13.93;;;;;;;23.09;55.90;99566.91;4984559;28;20058;-86
2022/08/26 03:19:07;;;;;;;21.02;13.70;;;;;;;22.91;56.49;99560.38;5015399;28;20138;-86
2022/08/26 03:21:36;;;;;;;23.35;13.02;;;;;;;23.07;55.86;99556.28;4969279;28;20065;-85
2022/08/26 03:24:04;;;;;;;33.42;14.38;;;;;;;23.16;55.61;99562.25;4956860;28;20049;-85
2022/08/26 03:26:35;;;;;;;28.45;14.35;;;;;;;23.05;55.75;99562.97;4969906;28;20042;-85
2022/08/26 03:31:48;;;;;;;22.88;14.30;;;;;;;23.15;55.76;99564.13;4990281;28;20415;-86
2022/08/26 03:34:17;;;;;;;24.75;13.93;;;;;;;23.05;55.87;99563.81;4943838;28;20053;-86
2022/08/26 03:36:45;;;;;;;25.38;13.75;;;;;;;23.02;56.09;99563.44;4989038;28;20120;-86
2022/08/26 03:39:12;;;;;;;33.05;14.98;;;;;;;23.03;55.93;99562.41;4999178;28;20053;-85
2022/08/26 03:41:39;;;;;;;28.25;14.25;;;;;;;23.00;56.23;99557.41;5000875;28;20054;-85
2022/08/26 03:44:09;;;;;;;26.35;14.15;;;;;;;22.95;56.27;99550.75;4984409;28;20108;-85
2022/08/26 03:46:38;;;;;;;25.27;14.93;;;;;;;22.90;56.47;99557.91;4977692;28;20046;-84
2022/08/26 03:49:06;;;;;;;25.13;14.38;;;;;;;22.92;56.40;99553.91;4950054;28;20602;-85
2022/08/26 03:51:35;;;;;;;26.45;14.68;;;;;;;22.87;56.59;99553.75;4967345;28;20046;-87
2022/08/26 03:54:05;;;;;;;27.30;14.98;;;;;;;22.86;56.73;99546.69;5003034;28;20049;-85
2022/08/26 03:56:35;;;;;;;25.80;14.07;;;;;;;22.85;56.54;99549.63;4987166;28;20047;-87
2022/08/26 03:59:02;;;;;;;21.15;13.82;;;;;;;22.80;56.81;99546.75;4983903;28;20105;-85
2022/08/26 04:05:50;;;;;;;22.73;13.95;;;;;;;22.67;57.02;99539.56;4978035;28;20085;-85
2022/08/26 04:08:18;;;;;;;20.90;14.10;;;;;;;22.66;56.88;99554.97;4983548;28;20050;-87
2022/08/26 04:10:44;;;;;;;23.13;13.52;;;;;;;22.68;57.00;99557.47;4968199;28;20050;-88
2022/08/26 04:13:11;;;;;;;27.75;15.20;;;;;;;22.65;57.10;99547.91;4986180;28;20100;-85
2022/08/26 04:15:38;;;;;;;26.92;14.07;;;;;;;22.64;57.19;99553.53;4980476;28;20042;-84
2022/08/26 04:22:44;;;;;;;26.83;14.60;;;;;;;22.46;57.80;99552.41;4974074;28;20487;-87
2022/08/26 04:25:11;;;;;;;26.58;14.10;;;;;;;22.57;57.39;99547.34;4982600;28;20049;-87
2022/08/26 04:27:42;;;;;;;26.67;14.52;;;;;;;22.44;57.96;99554.53;4966311;28;20490;-86
2022/08/26 04:30:10;;;;;;;28.30;14.45;;;;;;;22.49;57.63;99546.59;4967110;28;20462;-85
2022/08/26 04:32:37;;;;;;;25.25;14.90;;;;;;;22.53;57.63;99549.69;4963507;28;20051;-86
2022/08/26 04:35:05;;;;;;;28.00;15.20;;;;;;;22.49;57.69;99546.59;4984722;28;20041;-86
2022/08/26 04:37:34;;;;;;;23.85;14.73;;;;;;;22.52;57.77;99540.75;4967396;28;20047;-86
2022/08/26 04:40:01;;;;;;;29.40;14.52;;;;;;;22.48;57.84;99544.91;5003616;28;20038;-85
2022/08/26 04:42:32;;;;;;;24.23;14.63;;;;;;;22.40;58.26;99544.38;4968753;28;20050;-86
2022/08/26 04:44:59;;;;;;;26.02;15.07;;;;;;;22.45;57.87;99550.78;4968261;28;20205;-86
2022/08/26 04:47:30;;;;;;;26.73;14.88;;;;;;;22.48;57.99;99552.22;5018945;28;20042;-86
2022/08/26 04:49:58;;;;;;;26.30;15.32;;;;;;;22.61;57.23;99553.97;4999441;28;20805;-85
2022/08/26 04:52:25;;;;;;;30.95;16.35;;;;;;;22.75;57.02;99550.13;4986442;28;20038;-86
2022/08/26 04:54:53;;;;;;;22.67;14.60;;;;;;;22.65;56.98;99557.91;4968154;28;20042;-86
2022/08/26 04:57:22;;;;;;;25.25;15.85;;;;;;;22.62;57.49;99555.63;4997833;28;20050;-86
2022/08/26 04:59:48;;;;;;;27.23;16.50;;;;;;;22.75;56.77;99560.94;4984225;28;20047;-86
2022/08/26 05:02:15;;;;;;;31.58;16.70;;;;;;;22.67;56.96;99556.66;4983303;28;20073;-85
2022/08/26 05:04:42;;;;;;;32.85;15.98;;;;;;;22.75;56.47;99563.66;4997318;28;20058;-86
2022/08/26 05:07:09;;;;;;;29.17;15.25;;;;;;;22.80;56.88;99565.72;5010381;28;20057;-86
2022/08/26 05:09:39;;;;;;;31.40;16.77;;;;;;;22.76;57.08;99570.72;4980839;28;20469;-86
2022/08/26 05:12:06;;;;;;;31.38;17.42;;;;;;;22.88;56.57;99562.72;4967658;28;20047;-86
2022/08/26 05:14:34;;;;;;;26.08;16.15;;;;;;;22.86;56.70;99567.50;4949630;28;20060;-86
2022/08/26 05:17:02;;;;;;;29.42;15.75;;;;;;;22.86;56.69;99564.81;4988701;28;20057;-86
2022/08/26 05:19:30;;;;;;;30.88;15.82;;;;;;;22.84;56.84;99564.19;4985919;28;20077;-86
2022/08/26 05:21:58;;;;;;;37.75;16.50;;;;;;;22.89;56.56;99562.47;4981315;28;20129;-87
2022/08/26 05:24:24;;;;;;;27.38;15.10;;;;;;;22.96;56.83;99567.84;4983785;28;20050;-86
2022/08/26 05:26:52;;;;;;;31.60;15.93;;;;;;;22.95;56.82;99561.59;4985521;28;20046;-87
2022/08/26 05:29:21;;;;;;;27.63;15.30;;;;;;;22.89;56.93;99567.88;4998835;28;20506;-86
2022/08/26 05:32:17;;;;;;;28.60;16.63;;;;;;;22.68;57.57;99562.88;5016690;28;20070;-86
2022/08/26 05:34:44;;;;;;;30.02;16.20;;;;;;;22.93;56.71;99560.97;4968065;28;20096;-86
2022/08/26 05:37:11;;;;;;;33.20;16.65;;;;;;;22.95;56.66;99564.31;5017062;28;20077;-86
2022/08/26 05:39:39;;;;;;;31.35;16.52;;;;;;;23.06;56.48;99572.78;5010296;28;20052;-87
2022/08/26 05:42:09;;;;;;;32.45;16.85;;;;;;;23.12;56.36;99564.56;4985107;28;20048;-85
2022/08/26 05:44:35;;;;;;;32.70;17.20;;;;;;;23.13;56.26;99565.41;4985275;28;20054;-86
2022/08/26 05:47:22;;;;;;;29.83;16.25;;;;;;;23.16;56.50;99564.97;4976854;28;20446;-86
2022/08/26 05:49:49;;;;;;;33.00;16.08;;;;;;;23.15;56.48;99564.13;4950419;28;20058;-85
2022/08/26 05:52:18;;;;;;;29.33;16.20;;;;;;;23.15;56.53;99572.25;5001028;28;20069;-86
2022/08/26 05:54:44;;;;;;;31.23;17.35;;;;;;;23.18;56.42;99582.63;4993795;28;20058;-85
2022/08/26 05:57:13;;;;;;;33.60;17.05;;;;;;;23.12;56.32;99572.69;5014126;28;20418;-85
2022/08/26 05:59:40;;;;;;;35.85;16.75;;;;;;;23.06;56.88;99576.31;4983307;28;20486;-85
2022/08/26 06:02:07;;;;;;;33.22;16.70;;;;;;;23.10;56.29;99577.53;5015132;28;20050;-86
2022/08/26 06:04:34;;;;;;;37.15;17.25;;;;;;;23.16;56.83;99586.63;4984203;28;20521;-86
2022/08/26 06:07:04;;;;;;;29.00;15.45;;;;;;;23.12;56.56;99588.13;4998220;28;20043;-86
2022/08/26 06:09:35;;;;;;;29.40;16.63;;;;;;;23.07;57.19;99588.78;4963828;28;20097;-86
2022/08/26 06:12:04;;;;;;;31.80;17.20;;;;;;;23.12;56.90;99580.81;4966205;28;20038;-86
2022/08/26 06:14:31;;;;;;;29.30;17.17;;;;;;;23.16;56.73;99597.47;5016272;28;20050;-86
2022/08/26 06:16:57;;;;;;;35.97;17.02;;;;;;;23.18;56.86;99593.47;4949354;28;20042;-86
2022/08/26 06:19:24;;;;;;;30.60;16.90;;;;;;;23.16;56.98;99595.56;4994472;28;20439;-86
2022/08/26 06:25:36;;;;;;;31.67;18.05;;;;;;;23.21;56.75;99599.50;4985920;28;20486;-86
2022/08/26 06:27:36;;;;;;;32.15;17.10;;;;;;;23.30;56.94;99600.84;4936073;28;20046;-86
2022/08/26 06:30:03;;;;;;;34.83;17.83;;;;;;;23.31;56.73;99600.63;4990885;28;20398;-86
2022/08/26 06:32:30;;;;;;;38.35;17.40;;;;;;;23.41;56.82;99602.84;5001374;28;20047;-85
2022/08/26 06:35:02;;;;;;;35.90;16.48;;;;;;;23.41;57.03;99592.00;5019984;28;20050;-86
2022/08/26 06:41:16;;;;;;;37.00;18.45;;;;;;;23.68;56.81;99606.03;4942038;28;20049;-86
2022/08/26 06:44:34;;;;;;;33.47;17.00;;;;;;;23.57;57.13;99602.22;4983358;28;20045;-86
2022/08/26 06:47:28;;;;;;;39.38;18.55;;;;;;;23.74;57.00;99602.47;4940075;28;20283;-85
2022/08/26 06:50:46;;;;;;;34.53;17.92;;;;;;;23.68;56.82;99597.91;4972215;28;20050;-85
2022/08/26 06:54:10;;;;;;;38.38;19.92;;;;;;;23.50;57.10;99592.50;4927574;28;20096;-85
2022/08/26 07:01:03;;;;;;;40.95;18.10;;;;;;;23.89;56.52;99595.81;4988205;28;20657;-86
2022/08/26 07:04:31;;;;;;;38.60;20.05;;;;;;;23.70;57.03;99589.56;5013550;28;20050;-86
2022/08/26 07:07:02;;;;;;;34.70;20.23;;;;;;;23.82;56.95;99590.50;4954787;28;20056;-87
2022/08/26 07:09:34;;;;;;;35.88;19.58;;;;;;;23.89;56.46;99599.38;4973587;28;20051;-86
2022/08/26 07:12:03;;;;;;;33.15;17.98;;;;;;;23.97;56.16;99593.63;4982290;28;20510;-87
2022/08/26 07:14:30;;;;;;;38.40;20.23;;;;;;;24.02;56.04;99596.47;5008128;28;20406;-85
2022/08/26 07:17:48;;;;;;;35.85;19.40;;;;;;;24.08;56.26;99593.91;4986395;28;20449;-86
2022/08/26 07:20:15;;;;;;;39.95;19.77;;;;;;;24.23;55.80;99588.88;4945031;28;20043;-86
2022/08/26 07:22:42;;;;;;;36.47;20.33;;;;;;;24.34;55.60;99588.06;4985876;28;20095;-86
2022/08/26 07:25:10;;;;;;;34.35;18.52;;;;;;;24.45;55.18;99590.03;5003054;28;20635;-85
2022/08/26 07:27:37;;;;;;;37.38;19.20;;;;;;;24.46;54.73;99582.72;4987051;28;20054;-85
2022/08/26 07:30:05;;;;;;;46.08;19.48;;;;;;;24.50;54.56;99586.63;4985394;28;20054;-85
2022/08/26 07:32:32;;;;;;;32.95;19.20;;;;;;;24.52;54.38;99583.66;4970963;28;20564;-86
2022/08/26 07:34:59;;;;;;;32.42;18.42;;;;;;;24.54;54.11;99584.28;5019577;28;20105;-86
2022/08/26 07:37:26;;;;;;;36.88;18.00;;;;;;;24.55;54.15;99591.34;4986423;28;20047;-86
2022/08/26 07:39:58;;;;;;;33.40;18.58;;;;;;;24.56;54.12;99593.00;4961186;28;20439;-86
2022/08/26 07:42:25;;;;;;;28.25;15.60;;;;;;;24.60;54.29;99586.88;4973549;28;22192;-86
2022/08/26 07:44:52;;;;;;;30.20;16.42;;;;;;;24.67;54.17;99589.47;5017212;28;20125;-86
2022/08/26 07:47:19;;;;;;;36.22;17.38;;;;;;;24.72;54.31;99586.06;5001147;28;20038;-87
2022/08/26 07:49:53;;;;;;;29.63;16.05;;;;;;;24.79;54.31;99589.50;5014899;28;20081;-87
2022/08/26 07:52:20;;;;;;;27.25;16.63;;;;;;;24.86;54.49;99595.66;4969041;28;20454;-87
2022/08/26 07:54:56;;;;;;;31.52;16.05;;;;;;;24.89;54.37;99590.56;4984945;28;20129;-87
2022/08/26 07:57:25;;;;;;;28.55;15.65;;;;;;;24.94;54.51;99589.03;5013385;28;20046;-87
2022/08/26 07:59:52;;;;;;;30.30;16.40;;;;;;;25.05;54.43;99590.91;4969479;28;20658;-87
2022/08/26 08:02:21;;;;;;;32.78;16.60;;;;;;;25.10;54.46;99580.16;4980791;28;20038;-86
2022/08/26 08:04:48;;;;;;;32.50;16.27;;;;;;;25.12;54.20;99588.91;4984700;28;20049;-85
2022/08/26 08:07:15;;;;;;;28.90;15.40;;;;;;;25.17;54.07;99586.34;4954108;28;20051;-86
2022/08/26 08:09:41;;;;;;;30.40;15.32;;;;;;;25.24;54.20;99583.47;5012885;28;20597;-87
2022/08/26 08:12:08;;;;;;;33.70;15.93;;;;;;;25.29;54.04;99583.59;4969028;28;20403;-87
2022/08/26 08:14:41;;;;;;;37.50;17.45;;;;;;;25.34;54.06;99584.56;4986481;28;20442;-87
2022/08/26 08:17:07;;;;;;;33.05;15.88;;;;;;;25.41;54.26;99578.16;5001748;28;20049;-87
2022/08/26 08:19:34;;;;;;;33.50;14.55;;;;;;;25.44;53.83;99578.53;4994803;28;20638;-87
2022/08/26 08:22:05;;;;;;;33.28;16.08;;;;;;;25.49;53.80;99588.66;4980827;28;20053;-87
2022/08/26 08:24:43;;;;;;;37.42;15.75;;;;;;;25.53;53.72;99581.69;4967291;28;20498;-87
2022/08/26 08:27:10;;;;;;;32.15;15.77;;;;;;;25.52;53.82;99575.41;4951563;28;20034;-87
2022/08/26 08:29:37;;;;;;;25.38;15.05;;;;;;;25.58;53.50;99578.25;4992846;28;20052;-87
2022/08/26 08:32:04;;;;;;;34.00;17.45;;;;;;;25.59;53.47;99578.00;5016994;28;20470;-87
2022/08/26 08:34:38;;;;;;;31.60;16.10;;;;;;;25.61;53.39;99580.47;5000091;28;20054;-87
2022/08/26 08:37:05;;;;;;;28.23;14.07;;;;;;;25.64;53.16;99575.38;4998519;28;20050;-87
2022/08/26 08:39:36;;;;;;;39.05;16.75;;;;;;;25.66;53.45;99572.44;4984624;28;20732;-87
2022/08/26 08:42:24;;;;;;;31.70;15.65;;;;;;;25.59;53.10;99571.72;4999796;28;20050;-86
2022/08/26 08:44:52;;;;;;;32.35;15.68;;;;;;;25.66;53.23;99575.97;4982664;28;20438;-88
2022/08/26 08:47:43;;;;;;;27.90;15.95;;;;;;;25.59;53.42;99571.72;4966267;28;20552;-87
2022/08/26 08:50:19;;;;;;;37.93;15.67;;;;;;;25.65;53.32;99568.88;4961340;28;20438;-87
2022/08/26 08:52:54;;;;;;;30.45;15.07;;;;;;;25.71;53.01;99567.09;4999724;28;20050;-87
2022/08/26 08:55:21;;;;;;;30.90;15.52;;;;;;;25.76;53.32;99564.47;4964191;28;20462;-87
2022/08/26 08:57:56;;;;;;;35.83;16.58;;;;;;;25.77;52.82;99566.09;4983641;28;20528;-87
2022/08/26 09:00:43;;;;;;;30.50;15.38;;;;;;;25.72;53.22;99572.31;4981325;28;20046;-87
2022/08/26 09:03:22;;;;;;;36.15;17.30;;;;;;;25.80;53.17;99562.06;4968210;28;20053;-88
2022/08/26 09:05:52;;;;;;;37.15;15.90;;;;;;;25.90;52.70;99568.59;4974754;28;20522;-87
2022/08/26 09:08:26;;;;;;;51.90;17.70;;;;;;;25.96;52.44;99567.63;4952215;28;20042;-87
2022/08/26 09:10:56;;;;;;;42.88;20.08;;;;;;;25.98;52.18;99562.75;4998515;28;20090;-87
2022/08/26 09:13:24;;;;;;;44.25;19.67;;;;;;;26.05;52.32;99564.50;5016663;28;20494;-87
2022/08/26 09:16:17;;;;;;;33.85;16.77;;;;;;;26.01;52.70;99558.72;4961370;28;20034;-87
2022/08/26 09:18:55;;;;;;;;;;;;;;;25.95;52.66;99552.38;4951900;28;20046;-87
2022/08/26 09:21:23;;;;;;;41.67;18.77;;;;;;;26.13;52.34;99545.03;4957920;28;19929;-88
2022/08/26 09:23:54;;;;;;;39.97;17.05;;;;;;;26.20;52.39;99551.16;4995283;28;20125;-87
2022/08/26 09:26:39;;;;;;;32.67;15.93;;;;;;;26.24;52.42;99540.63;4999261;28;20394;-84
2022/08/26 09:29:17;;;;;;;27.33;14.98;;;;;;;26.28;52.20;99539.91;4995456;28;20402;-84
2022/08/26 09:31:51;;;;;;;28.80;15.18;;;;;;;26.35;52.33;99526.94;4945878;28;20392;-85
2022/08/26 09:34:23;;;;;;;40.63;16.13;;;;;;;26.40;52.26;99529.72;4967894;28;20047;-85
2022/08/26 09:36:52;;;;;;;31.05;15.95;;;;;;;26.41;51.80;99530.59;4931616;28;20062;-84
2022/08/26 09:39:27;;;;;;;36.05;17.00;;;;;;;26.42;52.07;99526.78;4966038;28;20039;-85
2022/08/26 09:42:10;;;;;;;38.15;18.15;;;;;;;26.40;51.69;99516.13;5014745;28;20392;-86
2022/08/26 09:45:07;;;;;;;35.72;17.20;;;;;;;26.42;52.02;99513.16;5014860;28;20046;-85
2022/08/26 09:47:51;;;;;;;34.45;16.73;;;;;;;26.54;51.87;99507.69;4938779;28;20046;-85
2022/08/26 09:50:28;;;;;;;;;;;;;;;26.45;52.16;99507.22;4994760;28;20137;-85
2022/08/26 09:53:10;;;;;;;31.67;15.57;;;;;;;26.59;51.77;99497.69;4964446;28;19922;-84
2022/08/26 09:55:41;;;;;;;33.22;14.88;;;;;;;26.71;50.96;99494.03;5015057;28;20050;-85
2022/08/26 09:58:15;;;;;;;29.90;14.57;;;;;;;26.75;50.97;99495.19;4972094;28;20046;-87
2022/08/26 10:00:56;;;;;;;29.92;15.10;;;;;;;26.75;50.45;99489.72;4983239;28;20104;-88
2022/08/26 10:03:31;;;;;;;41.60;16.20;;;;;;;26.83;50.65;99479.22;4955581;28;20517;-87
2022/08/26 10:06:03;;;;;;;42.33;17.95;;;;;;;26.90;50.55;99481.78;4984380;28;20051;-88
2022/08/26 10:08:29;;;;;;;32.97;15.20;;;;;;;26.95;50.21;99467.41;5000990;28;20051;-88
2022/08/26 10:10:58;;;;;;;36.78;16.25;;;;;;;27.02;50.31;99457.97;5017294;28;20451;-88
2022/08/26 10:13:32;;;;;;;34.90;15.65;;;;;;;27.05;50.08;99456.63;4984328;28;20046;-86
2022/08/26 10:16:05;;;;;;;42.22;16.88;;;;;;;27.10;49.67;99451.25;5000515;28;20050;-88
2022/08/26 10:18:40;;;;;;;29.88;15.02;;;;;;;27.15;49.55;99450.50;4984827;28;20042;-87
2022/08/26 10:21:20;;;;;;;41.92;17.67;;;;;;;27.15;49.26;99455.94;5001927;28;20109;-87
2022/08/26 10:23:50;;;;;;;26.05;14.18;;;;;;;27.12;49.26;99457.28;4984857;28;20038;-88
2022/08/26 10:26:29;;;;;;;35.40;16.02;;;;;;;27.09;49.00;99463.22;5001158;28;20451;-87
2022/08/26 10:29:05;;;;;;;37.38;17.55;;;;;;;27.16;49.36;99465.75;4904376;28;20664;-88
2022/08/26 10:31:37;;;;;;;44.83;17.05;;;;;;;27.21;48.95;99457.66;4915274;28;20153;-88
2022/08/26 10:34:07;;;;;;;42.42;16.38;;;;;;;27.28;49.30;99448.22;4944062;28;20040;-87
2022/08/26 10:36:50;;;;;;;36.42;15.15;;;;;;;27.37;49.29;99448.56;4936264;28;20051;-88
2022/08/26 10:39:53;;;;;;;36.53;14.55;;;;;;;27.35;48.84;99445.31;4877123;28;20067;-87
2022/08/26 10:42:31;;;;;;;30.20;14.25;;;;;;;27.40;48.50;99444.50;4912419;28;20047;-87
2022/08/26 10:45:04;;;;;;;36.13;15.23;;;;;;;27.44;48.49;99462.03;4952658;28;20051;-86
2022/08/26 10:48:03;;;;;;;38.85;16.00;;;;;;;27.41;48.31;99449.72;4922706;28;20761;-88
2022/08/26 10:50:34;;;;;;;35.33;15.98;;;;;;;27.41;48.64;99459.81;4947613;28;20051;-87
2022/08/26 10:53:10;;;;;;;37.53;16.20;;;;;;;27.35;48.49;99458.94;4952076;28;20531;-87
2022/08/26 10:55:49;;;;;;;30.27;15.52;;;;;;;27.32;48.27;99466.78;4949504;28;20044;-88
2022/08/26 10:58:55;;;;;;;38.83;16.20;;;;;;;27.27;47.53;99475.72;4914085;28;20047;-89
2022/08/26 11:01:44;;;;;;;32.67;15.18;;;;;;;27.23;47.26;99471.88;4937775;28;20043;-88
2022/08/26 11:04:26;;;;;;;29.13;14.88;;;;;;;27.16;46.99;99491.09;4966963;28;20117;-85
2022/08/26 11:07:31;;;;;;;29.60;12.20;;;;;;;26.90;46.32;99480.97;4949645;28;20501;-83
2022/08/26 11:10:00;;;;;;;28.95;10.60;;;;;;;26.65;46.39;99495.03;4981255;28;20501;-84
2022/08/26 11:12:36;;;;;;;23.73;10.18;;;;;;;26.48;46.60;99504.00;4999674;28;20044;-84
2022/08/26 11:15:07;;;;;;;23.65;10.55;;;;;;;26.41;46.86;99512.34;4984614;28;20435;-85
2022/08/26 11:17:43;;;;;;;20.70;10.20;;;;;;;26.33;47.43;99509.19;5002044;28;20074;-83
2022/08/26 11:20:27;;;;;;;21.02;10.50;;;;;;;26.27;47.55;99511.00;4984631;28;20042;-84
2022/08/26 11:22:55;;;;;;;21.75;11.25;;;;;;;26.32;47.47;99510.28;4999978;28;20062;-85
2022/08/26 11:25:25;;;;;;;33.67;11.57;;;;;;;26.30;48.81;99523.31;5017756;28;20371;-85
2022/08/26 11:27:58;;;;;;;25.38;10.93;;;;;;;26.24;51.26;99521.56;4969923;28;20046;-83
2022/08/26 11:30:35;;;;;;;40.70;13.05;;;;;;;26.10;57.93;99526.50;4983088;28;20506;-84
2022/08/26 11:33:02;;;;;;;24.92;12.95;;;;;;;26.03;56.55;99537.53;4954301;28;20482;-82
2022/08/26 11:35:33;;;;;;;36.40;13.90;;;;;;;25.89;62.99;99569.66;4986993;28;20137;-82
2022/08/26 11:38:17;;;;;;;;;;;;;;;25.55;63.20;99591.25;4997045;28;20498;-83
2022/08/26 11:40:43;;;;;;;36.10;15.38;;;;;;;25.66;59.33;99600.44;4997673;28;19922;-82
2022/08/26 11:43:19;;;;;;;44.88;16.58;;;;;;;25.61;60.37;99594.06;4965727;28;20056;-82
2022/08/26 11:46:10;;;;;;;44.83;19.02;;;;;;;25.32;66.57;99591.31;4978578;28;20445;-82
2022/08/26 11:48:41;;;;;;;38.22;17.80;;;;;;;25.31;66.07;99587.72;4953907;28;20053;-82
2022/08/26 11:51:20;;;;;;;37.58;17.00;;;;;;;25.09;66.52;99570.38;5001311;28;20093;-82
2022/08/26 11:53:47;;;;;;;35.42;17.73;;;;;;;25.14;64.29;99556.91;5002823;28;20651;-83
2022/08/26 11:56:27;;;;;;;37.97;16.10;;;;;;;25.01;66.15;99536.25;5004067;28;20057;-82
2022/08/26 11:58:59;;;;;;;36.22;16.05;;;;;;;25.01;65.49;99529.97;4973964;28;20772;-84
2022/08/26 12:01:31;;;;;;;38.22;16.02;;;;;;;24.84;67.39;99525.25;5002977;28;20488;-84
2022/08/26 12:03:58;;;;;;;29.85;16.10;;;;;;;24.87;66.51;99523.97;5003903;28;20493;-84
2022/08/26 12:06:30;;;;;;;35.78;14.63;;;;;;;24.81;67.44;99508.63;4987533;28;20548;-84